HALF-HOURLY OBSERVATIONS INDEX

063

Central Tablelands - south

BATHURST AIRPORT AWS

Site: 063291
Alt: 744.5m
7km E of BATHURST


  Time     Wind        Temp  DP   Baro     Rain since   Rain past  Vis(m), Cloud(base in m), Weather
  local        km/h                         9am  last   hr   10m    
Mon 11:00   NW  2/  9  25.0 11.6  1019.0    0.0   0.0   0.0   0.0   10000 
Mon 11:30  WSW  6/ 11  26.4 10.9  1019.0    0.0   0.0   0.0   0.0   10000 
Mon 12:00    W  7/ 19  27.3 10.5  1018.7    0.0   0.0   0.0   0.0   10000 
Mon 12:30   SW 11/ 24  27.7 10.0  1018.4    0.0   0.0   0.0   0.0   10000 
Mon 13:00    W 19/ 24  28.6  9.8  1018.0    0.0   0.0   0.0   0.0   10000 
Mon 13:30  WSW 13/ 24  28.8  9.5  1017.9    0.0   0.0   0.0   0.0   10000|SC2190 
Mon 14:00    S 20/ 24  28.9  9.1  1017.7    0.0   0.0   0.0   0.0   10000|SC2310 
Mon 14:30  WSW 17/ 28  30.3  8.7  1017.3    0.0   0.0   0.0   0.0   10000|SC2370 
Mon 15:00  WSW 22/ 26  29.7  7.6  1017.0    0.0   0.0   0.0   0.0   10000 
Mon 15:30    S  9/ 22  29.6  8.1  1016.8    0.0   0.0   0.0   0.0   10000 
Mon 16:00    S 17/ 26  29.2  8.3  1016.5    0.0   0.0   0.0   0.0   10000 
Mon 16:30    S 22/ 28  28.1  6.8  1016.5    0.0   0.0   0.0   0.0   10000 

MARRANGAROO (DEFENCE)

Site: 063308
Alt: 955.0m
6km NNW of LITHGOW


  Time     Wind        Temp  DP   Baro     Rain since   Rain past  Vis(m), Cloud(base in m), Weather
  local        km/h                         9am  last   hr   10m    
Mon 11:00  WSW  7/ 13  25.4 10.8  ------    0.0   0.0   0.0   0.0   ----- 
Mon 11:30   SW 11/ 24  25.1  8.6  ------    0.0   0.0   0.0   0.0   ----- 
Mon 12:00  WSW 11/ 20  25.6  9.8  ------    0.0   0.0   0.0   0.0   ----- 
Mon 12:30  WSW  9/ 15  26.1  9.9  ------    0.0   0.0   0.0   0.0   ----- 
Mon 13:00   SW  9/ 20  26.4 11.3  ------    0.0   0.0   0.0   0.0   ----- 
Mon 13:30    W  9/ 19  26.9 12.2  ------    0.0   0.0   0.0   0.0   ----- 
Mon 14:00    W  7/ 13  27.0 11.5  ------    0.0   0.0   0.0   0.0   ----- 
Mon 14:30  WSW  7/ 13  26.9  9.3  ------    0.0   0.0   0.0   0.0   ----- 
Mon 15:00    S  7/ 11  26.8  9.6  ------    0.0   0.0   0.0   0.0   ----- 
Mon 15:30  SSW  4/ 13  26.6  7.6  ------    0.0   0.0   0.0   0.0   ----- 
Mon 16:00   SE  4/  9  26.7  9.1  ------    0.0   0.0   0.0   0.0   ----- 
Mon 16:30    E 11/ 19  23.9 16.4  ------    0.0   0.0   0.0   0.0   ----- 

MOUNT BOYCE AWS

Site: 063292
Alt: 1080.0m
11km NNW of KATOOMBA


  Time     Wind        Temp  DP   Baro     Rain since   Rain past  Vis(m), Cloud(base in m), Weather
  local        km/h                         9am  last   hr   10m    
Mon 11:00    W 11/ 17  21.6 11.3  ------    0.0   0.0   0.0   0.0   10000 
Mon 11:30    W 15/ 20  22.6 11.4  ------    0.0   0.0   0.0   0.0   10000 
Mon 12:00  WSW 13/ 19  23.2 10.9  ------    0.0   0.0   0.0   0.0   10000 
Mon 12:30    W 15/ 20  24.2 11.5  ------    0.0   0.0   0.0   0.0   10000 
Mon 13:00  WSW 13/ 19  25.0 10.1  ------    0.0   0.0   0.0   0.0   10000|SC1620 BR3750 
Mon 13:30    S 11/ 19  26.4 10.5  ------    0.0   0.0   0.0   0.0   10000 
Mon 14:00  WSW 17/ 22  24.7  9.8  ------    0.0   0.0   0.0   0.0   10000|SC1860 
Mon 14:30   SW  7/ 19  27.0  9.4  ------    0.0   0.0   0.0   0.0   10000|SC1890 
Mon 15:00  ESE  7/ 20  25.4 14.5  ------    0.0   0.0   0.0   0.0   10000|BR1830 
Mon 15:30    E 11/ 24  24.6 17.1  ------    0.0   0.0   0.0   0.0   10000|SC1890 
Mon 16:00  ENE 11/ 22  22.5 16.5  ------    0.0   0.0   0.0   0.0   10000 
Mon 16:30  ENE 11/ 19  21.8 16.5  ------    0.0   0.0   0.0   0.0   10000 

ORANGE AIRPORT AWS

Site: 063303
Alt: 944.7m
11km SSE of ORANGE


  Time     Wind        Temp  DP   Baro     Rain since   Rain past  Vis(m), Cloud(base in m), Weather
  local        km/h                         9am  last   hr   10m    
Mon 11:00  WSW 20/ 26  25.1 10.6  1019.9    0.0   0.0   0.0   0.0   10000 
Mon 11:30  SSW 19/ 30  25.3 10.7  1020.0    0.0   0.0   0.0   0.0   10000 
Mon 12:00  SSW 20/ 28  26.1 11.5  1019.8    0.0   0.0   0.0   0.0   10000 
Mon 12:30  SSW 17/ 22  25.5  8.5  1019.6    0.0   0.0   0.0   0.0   10000 
Mon 13:00  WSW 20/ 28  26.3 10.9  1019.4    0.0   0.0   0.0   0.0   10000 
Mon 13:30   SW 17/ 28  26.2 10.0  1019.3    0.0   0.0   0.0   0.0   10000|SC3750 
Mon 13:52   SW 15/ 24  26.5 10.6  1019.1    0.0   0.0  ----   0.0    5000|SC3750 
Mon 14:00    S 15/ 22  26.4  9.7  1019.1    0.0   0.0   0.0   0.0    6000|SC3750 
Mon 14:09    S 13/ 19  27.0 11.9  1019.1    0.0   0.0  ----   0.0   10000 
Mon 14:30  SSW 13/ 17  26.6 10.3  1018.8    0.0   0.0   0.0   0.0   10000 
Mon 15:00   SW 11/ 22  26.8  9.6  1018.6    0.0   0.0   0.0   0.0   10000 
Mon 15:30  SSW 13/ 20  26.2 10.4  1018.3    0.0   0.0   0.0   0.0   10000 
Mon 16:00    S 11/ 17  26.3  8.8  1018.2    0.0   0.0   0.0   0.0   10000|SC3750 
Mon 16:30  SSE 11/ 15  25.6 11.0  1017.9    0.0   0.0   0.0   0.0   10000